PWSweather.com
Personal Weather Stations
Station Observations
KVAGLENALL
West Henrico, Glen Allen, VA 23060-6503

West HenricoGlen Allen, VA 23060-6503

Lat: 37.6554, Lon: -77.5693

Elevation: 273

Station Type: Davis Vantage Pro II

www.glenallenweather.com

High Low Average
Temperature 56.9°F13.8°C 35.7°F2.1°C 45.3°F7.4°C
Dew Point 44.0°F6.7°C 32.7°F0.4°C 37.5°F3.1°C
Winds 10.0 mph 16.1 kmh Calm Calm 2.0 mph SSW3.2 kmh SSW
Wind Gusts 12.1 mph19.5 kmh -- 4.0 mph6.4 kmh
Humidity 98% 49% 76%
Pressure 30.25 in1024.4 mb 29.89 in1012.2 mb -
Precipitation 0.00 in0.0 mm - -
Hour Temp Dew Point Humidity Winds Wind Gusts Pressure Precip Precip Rate Daily Precip Total
12:30 AM 45.6°F7.6°C 44.0°F6.7°C 94% 1.0 mph SSW1.6 kmh SSW 5.1 mph8.2 kmh 29.89 in1012.2 mb 0.00 in0.0 mm 0.00 in0.0 mm 0.00 in0.0 mm
01:30 AM 44.7°F7.1°C 43.1°F6.2°C 94% Calm Calm -- 29.90 in1012.5 mb 0.00 in0.0 mm 0.00 in0.0 mm 0.00 in0.0 mm
02:30 AM 42.1°F5.6°C 40.8°F4.9°C 95% Calm Calm -- 29.91 in1012.9 mb 0.00 in0.0 mm 0.00 in0.0 mm 0.00 in0.0 mm
03:30 AM 39.9°F4.4°C 38.9°F3.8°C 96% Calm Calm 1.0 mph1.6 kmh 29.92 in1013.2 mb 0.00 in0.0 mm 0.00 in0.0 mm 0.00 in0.0 mm
04:30 AM 38.5°F3.6°C 37.5°F3.1°C 96% 1.0 mph N1.6 kmh N 2.0 mph3.2 kmh 29.94 in1013.9 mb 0.00 in0.0 mm 0.00 in0.0 mm 0.00 in0.0 mm
05:30 AM 36.6°F2.6°C 35.6°F2.0°C 96% Calm Calm -- 29.96 in1014.6 mb 0.00 in0.0 mm 0.00 in0.0 mm 0.00 in0.0 mm
06:30 AM 35.7°F2.1°C 34.9°F1.6°C 97% Calm Calm 1.0 mph1.6 kmh 29.99 in1015.6 mb 0.00 in0.0 mm 0.00 in0.0 mm 0.00 in0.0 mm
07:30 AM 36.4°F2.4°C 35.6°F2.0°C 97% Calm Calm -- 30.03 in1016.9 mb 0.00 in0.0 mm 0.00 in0.0 mm 0.00 in0.0 mm
08:30 AM 41.2°F5.1°C 40.7°F4.8°C 98% 2.0 mph N3.2 kmh N 2.0 mph3.2 kmh 30.06 in1017.9 mb 0.00 in0.0 mm 0.00 in0.0 mm 0.00 in0.0 mm
09:30 AM 50.8°F10.4°C 41.0°F5.0°C 69% Calm Calm 6.1 mph9.8 kmh 30.08 in1018.6 mb 0.00 in0.0 mm 0.00 in0.0 mm 0.00 in0.0 mm
10:30 AM 54.5°F12.5°C 40.9°F4.9°C 60% 5.0 mph NE8.0 kmh NE 8.1 mph13.0 kmh 30.08 in1018.6 mb 0.00 in0.0 mm 0.00 in0.0 mm 0.00 in0.0 mm
11:30 AM 56.5°F13.6°C 40.1°F4.5°C 54% 10.0 mph NNE16.1 kmh NNE 11.1 mph17.9 kmh 30.09 in1019.0 mb 0.00 in0.0 mm 0.00 in0.0 mm 0.00 in0.0 mm
12:30 PM 56.9°F13.8°C 38.5°F3.6°C 50% 8.0 mph N12.9 kmh N 12.1 mph19.5 kmh 30.08 in1018.6 mb 0.00 in0.0 mm 0.00 in0.0 mm 0.00 in0.0 mm
01:30 PM 54.9°F12.7°C 37.1°F2.8°C 51% 4.0 mph N6.4 kmh N 9.1 mph14.6 kmh 30.08 in1018.6 mb 0.00 in0.0 mm 0.00 in0.0 mm 0.00 in0.0 mm
02:30 PM 56.1°F13.4°C 38.2°F3.4°C 51% 1.0 mph SSE1.6 kmh SSE 5.1 mph8.2 kmh 30.08 in1018.6 mb 0.00 in0.0 mm 0.00 in0.0 mm 0.00 in0.0 mm
03:30 PM 54.3°F12.4°C 35.5°F1.9°C 49% 4.0 mph NW6.4 kmh NW 9.1 mph14.6 kmh 30.09 in1019.0 mb 0.00 in0.0 mm 0.00 in0.0 mm 0.00 in0.0 mm
04:30 PM 51.7°F10.9°C 36.5°F2.5°C 56% 5.0 mph N8.0 kmh N 5.1 mph8.2 kmh 30.12 in1020.0 mb 0.00 in0.0 mm 0.00 in0.0 mm 0.00 in0.0 mm
05:30 PM 48.2°F9.0°C 36.7°F2.6°C 64% 2.0 mph N3.2 kmh N 3.0 mph4.8 kmh 30.15 in1021.0 mb 0.00 in0.0 mm 0.00 in0.0 mm 0.00 in0.0 mm
06:30 PM 44.7°F7.1°C 35.9°F2.2°C 71% 2.0 mph N3.2 kmh N 3.0 mph4.8 kmh 30.18 in1022.0 mb 0.00 in0.0 mm 0.00 in0.0 mm 0.00 in0.0 mm
07:30 PM 43.5°F6.4°C 34.8°F1.6°C 71% 3.0 mph N4.8 kmh N 8.1 mph13.0 kmh 30.19 in1022.4 mb 0.00 in0.0 mm 0.00 in0.0 mm 0.00 in0.0 mm
08:30 PM 42.0°F5.6°C 34.3°F1.3°C 74% 3.0 mph NNW4.8 kmh NNW 4.0 mph6.4 kmh 30.22 in1023.4 mb 0.00 in0.0 mm 0.00 in0.0 mm 0.00 in0.0 mm
09:30 PM 39.6°F4.2°C 33.6°F0.9°C 79% 3.0 mph NNE4.8 kmh NNE 3.0 mph4.8 kmh 30.22 in1023.4 mb 0.00 in0.0 mm 0.00 in0.0 mm 0.00 in0.0 mm
10:30 PM 37.5°F3.1°C 33.1°F0.6°C 84% Calm Calm -- 30.24 in1024.0 mb 0.00 in0.0 mm 0.00 in0.0 mm 0.00 in0.0 mm
11:30 PM 36.5°F2.5°C 32.7°F0.4°C 86% Calm Calm -- 30.25 in1024.4 mb 0.00 in0.0 mm 0.00 in0.0 mm 0.00 in0.0 mm